Time;durP1;ratioP1;P1;durP2;ratioP2;P2;SDS_P1;SDS_P2;PMS_P1;PMS_P2;Temp;Humidity;BMP_temperature;BMP_pressure;BME280_temperature;BME280_humidity;BME280_pressure;Samples;Min_cycle;Max_cycle;Signal;HPM_P1;HPM_P2
2023/07/19 00:02:15;;;;;;;5.00;2.70;;;15.90;99.90;;;;;;5096328;28;20226;-80
2023/07/19 00:04:41;;;;;;;5.18;2.42;;;15.90;99.90;;;;;;5096354;28;20206;-80
2023/07/19 00:07:08;;;;;;;4.82;2.70;;;15.90;99.90;;;;;;5095655;28;20201;-80
2023/07/19 00:09:36;;;;;;;4.53;2.65;;;16.00;99.90;;;;;;5096225;28;20200;-80
2023/07/19 00:12:05;;;;;;;3.67;2.60;;;16.00;99.90;;;;;;5095244;28;20318;-80
2023/07/19 00:14:31;;;;;;;2.60;2.33;;;16.00;99.90;;;;;;5080595;28;20275;-81
2023/07/19 00:16:58;;;;;;;3.90;2.70;;;16.10;99.90;;;;;;5088961;28;20198;-80
2023/07/19 00:19:25;;;;;;;3.90;2.70;;;15.90;99.90;;;;;;5085693;28;20217;-80
2023/07/19 00:21:52;;;;;;;4.68;2.70;;;16.00;99.90;;;;;;5096002;28;20215;-79
2023/07/19 00:24:19;;;;;;;5.90;2.58;;;15.90;99.90;;;;;;5095699;28;20202;-80
2023/07/19 00:26:46;;;;;;;3.92;2.92;;;15.80;99.90;;;;;;5095907;28;20213;-80
2023/07/19 00:29:16;;;;;;;5.30;2.60;;;16.00;99.90;;;;;;5095946;28;20201;-80
2023/07/19 00:31:43;;;;;;;5.30;2.78;;;16.10;99.90;;;;;;5096006;28;20657;-79
2023/07/19 00:34:10;;;;;;;3.10;2.70;;;16.20;99.90;;;;;;5096476;28;20212;-80
2023/07/19 00:36:37;;;;;;;5.28;2.60;;;16.10;99.90;;;;;;5095319;28;20202;-80
2023/07/19 00:39:04;;;;;;;5.28;2.70;;;16.20;99.90;;;;;;5095937;28;20229;-79
2023/07/19 00:41:31;;;;;;;4.03;2.95;;;16.20;99.90;;;;;;5096519;28;20619;-80
2023/07/19 00:43:57;;;;;;;4.93;2.83;;;16.30;99.90;;;;;;5096105;28;20221;-79
2023/07/19 00:46:26;;;;;;;3.38;2.78;;;16.20;99.90;;;;;;5095311;28;20198;-80
2023/07/19 00:48:57;;;;;;;4.65;2.60;;;16.30;99.90;;;;;;5096684;28;20654;-80
2023/07/19 00:51:24;;;;;;;5.40;2.72;;;16.20;99.90;;;;;;5095837;28;20212;-80
2023/07/19 00:53:52;;;;;;;5.35;2.85;;;16.10;99.90;;;;;;5095323;28;20218;-80
2023/07/19 00:56:21;;;;;;;3.67;2.60;;;16.10;99.90;;;;;;5098067;28;20292;-80
2023/07/19 00:58:50;;;;;;;3.97;2.50;;;16.00;99.90;;;;;;5098729;28;20232;-80
2023/07/19 01:01:17;;;;;;;3.78;2.83;;;15.90;99.90;;;;;;5099523;28;20205;-80
2023/07/19 01:03:45;;;;;;;5.18;2.58;;;15.80;99.90;;;;;;5083119;28;20642;-79
2023/07/19 01:06:12;;;;;;;3.72;2.65;;;15.80;99.90;;;;;;5078463;28;20208;-80
2023/07/19 01:08:40;;;;;;;6.28;3.10;;;15.70;99.90;;;;;;5078764;28;20202;-79
2023/07/19 01:11:06;;;;;;;4.90;2.90;;;15.70;99.90;;;;;;5085010;28;20610;-80
2023/07/19 01:13:33;;;;;;;3.50;2.45;;;15.70;99.90;;;;;;5099294;28;20806;-80
2023/07/19 01:16:00;;;;;;;3.50;2.75;;;15.80;99.90;;;;;;5099494;28;20202;-79
2023/07/19 01:18:27;;;;;;;5.93;3.10;;;15.70;99.90;;;;;;5098254;28;20245;-80
2023/07/19 01:20:55;;;;;;;5.07;2.60;;;15.70;99.90;;;;;;5099463;28;20197;-79
2023/07/19 01:23:24;;;;;;;5.57;2.97;;;15.70;99.90;;;;;;5098335;28;20222;-80
2023/07/19 01:25:51;;;;;;;6.30;2.53;;;15.60;99.90;;;;;;5098909;28;20276;-79
2023/07/19 01:28:19;;;;;;;3.35;2.63;;;15.50;99.90;;;;;;5098721;28;20190;-80
2023/07/19 01:30:45;;;;;;;5.43;2.80;;;15.50;99.90;;;;;;5099438;28;20228;-79
2023/07/19 01:33:12;;;;;;;4.63;2.50;;;15.50;99.90;;;;;;5098790;28;20221;-79
2023/07/19 01:35:39;;;;;;;5.80;2.70;;;15.60;99.90;;;;;;5098771;28;20209;-80
2023/07/19 01:38:05;;;;;;;4.55;2.60;;;15.70;99.90;;;;;;5079620;28;20585;-80
2023/07/19 01:40:34;;;;;;;6.28;2.55;;;15.60;99.90;;;;;;5080276;28;20864;-80
2023/07/19 01:43:00;;;;;;;2.70;2.13;;;15.40;99.90;;;;;;5080072;28;20245;-79
2023/07/19 01:45:27;;;;;;;5.63;2.75;;;15.40;99.90;;;;;;5093815;28;20206;-80
2023/07/19 01:47:54;;;;;;;5.43;2.70;;;15.30;99.90;;;;;;5097951;28;20202;-80
2023/07/19 01:50:21;;;;;;;4.38;2.47;;;15.20;99.90;;;;;;5097553;28;20204;-79
2023/07/19 01:52:49;;;;;;;3.50;2.58;;;15.20;99.90;;;;;;5097852;28;20658;-79
2023/07/19 01:55:15;;;;;;;3.10;2.55;;;15.30;99.90;;;;;;5098006;28;20595;-79
2023/07/19 01:57:44;;;;;;;2.95;2.28;;;15.40;99.90;;;;;;5096955;28;20201;-79
2023/07/19 02:00:12;;;;;;;4.20;2.70;;;15.10;99.90;;;;;;5097960;28;20225;-79
2023/07/19 02:02:38;;;;;;;3.58;2.50;;;15.00;99.90;;;;;;5097805;28;20225;-80
2023/07/19 02:05:06;;;;;;;4.78;2.85;;;15.00;99.90;;;;;;5097566;28;20232;-79
2023/07/19 02:07:33;;;;;;;3.28;2.42;;;15.10;99.90;;;;;;5096346;28;20672;-79
2023/07/19 02:10:00;;;;;;;5.53;2.63;;;15.10;99.90;;;;;;5097761;28;20679;-79
2023/07/19 02:12:27;;;;;;;4.35;2.55;;;15.20;99.90;;;;;;5092980;28;20595;-79
2023/07/19 02:14:56;;;;;;;4.03;2.80;;;15.00;99.90;;;;;;5076825;28;20659;-79
2023/07/19 02:17:23;;;;;;;4.30;2.60;;;15.20;99.90;;;;;;5076869;28;20289;-80
2023/07/19 02:19:49;;;;;;;5.22;3.10;;;15.00;99.90;;;;;;5076989;28;20229;-79
2023/07/19 02:22:16;;;;;;;3.40;2.40;;;15.10;99.90;;;;;;5093490;28;20213;-80
2023/07/19 02:24:43;;;;;;;2.95;2.60;;;15.00;99.90;;;;;;5096942;28;20202;-80
2023/07/19 02:27:10;;;;;;;3.30;2.50;;;15.00;99.90;;;;;;5096642;28;20297;-80
2023/07/19 02:29:37;;;;;;;3.72;2.47;;;15.00;99.90;;;;;;5092899;28;20284;-79
2023/07/19 02:32:05;;;;;;;3.78;2.70;;;14.90;99.90;;;;;;5094766;28;20222;-80
2023/07/19 02:34:32;;;;;;;3.15;2.80;;;15.00;99.90;;;;;;5092956;28;20198;-80
2023/07/19 02:36:59;;;;;;;6.47;2.78;;;15.10;99.90;;;;;;5086843;28;20203;-80
2023/07/19 02:39:27;;;;;;;5.00;3.25;;;14.90;99.90;;;;;;5084131;28;20594;-79
2023/07/19 02:41:54;;;;;;;6.07;3.28;;;15.10;99.90;;;;;;5081578;28;20198;-79
2023/07/19 02:44:21;;;;;;;5.20;2.90;;;15.10;99.90;;;;;;5077032;28;20577;-83
2023/07/19 02:46:48;;;;;;;3.28;2.83;;;15.10;99.90;;;;;;5095133;28;20247;-80
2023/07/19 02:49:16;;;;;;;4.75;2.95;;;15.20;99.90;;;;;;5088937;28;20190;-79
2023/07/19 02:51:43;;;;;;;5.72;2.83;;;15.00;99.90;;;;;;5095776;28;20212;-80
2023/07/19 02:54:10;;;;;;;4.22;2.92;;;15.10;99.90;;;;;;5094951;28;20284;-79
2023/07/19 02:56:37;;;;;;;5.45;3.13;;;15.20;99.90;;;;;;5094759;28;20202;-79
2023/07/19 02:59:04;;;;;;;3.97;2.90;;;15.20;99.90;;;;;;5096469;28;20316;-79
2023/07/19 03:01:31;;;;;;;3.47;2.65;;;15.10;99.90;;;;;;5095532;28;20209;-79
2023/07/19 03:03:59;;;;;;;6.35;3.22;;;15.20;99.90;;;;;;5095428;28;20229;-79
2023/07/19 03:06:28;;;;;;;3.13;2.55;;;15.20;99.90;;;;;;5096543;28;20208;-80
2023/07/19 03:08:55;;;;;;;4.10;2.80;;;15.10;99.90;;;;;;5097966;28;20198;-78
2023/07/19 03:11:22;;;;;;;7.88;3.25;;;15.10;99.90;;;;;;5098919;28;20219;-78
2023/07/19 03:13:49;;;;;;;5.32;2.97;;;15.10;99.90;;;;;;5099947;28;20245;-78
2023/07/19 03:16:16;;;;;;;5.05;2.80;;;15.10;99.90;;;;;;5099034;28;20197;-78
2023/07/19 03:18:43;;;;;;;5.18;3.03;;;14.90;99.90;;;;;;5094946;28;20213;-80
2023/07/19 03:21:09;;;;;;;4.25;3.00;;;15.00;99.90;;;;;;5096358;28;20296;-80
2023/07/19 03:23:38;;;;;;;6.20;2.90;;;15.00;99.90;;;;;;5095836;28;20226;-81
2023/07/19 03:26:07;;;;;;;3.83;2.45;;;15.00;99.90;;;;;;5096246;28;20285;-80
2023/07/19 03:28:33;;;;;;;4.30;3.20;;;15.00;99.90;;;;;;5096536;28;20216;-81
2023/07/19 03:31:00;;;;;;;3.67;2.70;;;15.10;99.90;;;;;;5094686;28;20264;-80
2023/07/19 03:33:27;;;;;;;8.60;2.83;;;15.20;99.90;;;;;;5095366;28;20294;-79
2023/07/19 03:35:54;;;;;;;4.65;2.97;;;15.00;99.90;;;;;;5094111;28;20198;-80
2023/07/19 03:38:22;;;;;;;4.22;2.63;;;15.10;99.90;;;;;;5094673;28;20205;-79
2023/07/19 03:40:50;;;;;;;4.70;3.15;;;15.10;99.90;;;;;;5095591;28;20229;-80
2023/07/19 03:43:17;;;;;;;4.78;2.83;;;15.10;99.90;;;;;;5095158;28;20291;-80
2023/07/19 03:45:44;;;;;;;3.85;2.28;;;15.20;99.90;;;;;;5095828;28;20205;-79
2023/07/19 03:48:10;;;;;;;5.32;2.45;;;15.40;99.90;;;;;;5095898;28;20675;-80
2023/07/19 03:50:37;;;;;;;6.28;2.88;;;15.30;99.90;;;;;;5096581;28;20202;-81
2023/07/19 03:53:04;;;;;;;5.90;3.33;;;15.20;99.90;;;;;;5097262;28;20281;-79
2023/07/19 03:55:31;;;;;;;3.55;2.53;;;15.10;99.90;;;;;;5096397;28;20227;-80
2023/07/19 03:58:00;;;;;;;5.22;2.95;;;15.20;99.90;;;;;;5096045;28;20197;-80
2023/07/19 04:00:27;;;;;;;3.15;2.45;;;15.20;99.90;;;;;;5096009;28;20221;-80
2023/07/19 04:02:53;;;;;;;3.15;2.42;;;15.30;99.90;;;;;;5095707;28;20308;-81
2023/07/19 04:05:20;;;;;;;4.85;2.83;;;15.40;99.90;;;;;;5096215;28;20216;-79
2023/07/19 04:07:47;;;;;;;4.68;2.58;;;15.50;99.90;;;;;;5095706;28;20197;-80
2023/07/19 04:10:14;;;;;;;3.85;2.53;;;15.40;99.90;;;;;;5095138;28;20208;-81
2023/07/19 04:12:40;;;;;;;6.05;3.10;;;15.40;99.90;;;;;;5094982;28;20225;-81
2023/07/19 04:15:10;;;;;;;4.60;2.55;;;15.40;99.90;;;;;;5094999;28;20816;-80
2023/07/19 04:17:37;;;;;;;5.15;3.00;;;15.40;99.90;;;;;;5094502;28;20248;-80
2023/07/19 04:20:06;;;;;;;5.30;2.90;;;15.40;99.90;;;;;;5094370;28;20232;-81
2023/07/19 04:22:33;;;;;;;4.88;2.78;;;15.40;99.90;;;;;;5094903;28;20239;-81
2023/07/19 04:24:59;;;;;;;5.28;2.50;;;15.30;99.90;;;;;;5094611;28;20197;-80
2023/07/19 04:27:26;;;;;;;3.50;2.40;;;15.30;99.90;;;;;;5090693;28;20194;-80
2023/07/19 04:29:53;;;;;;;5.47;2.70;;;15.30;99.90;;;;;;5084816;28;20901;-80
2023/07/19 04:32:21;;;;;;;3.95;3.00;;;15.20;99.90;;;;;;5096236;28;20228;-80
2023/07/19 04:34:48;;;;;;;5.20;2.90;;;15.20;99.90;;;;;;5090139;28;20201;-80
2023/07/19 04:37:15;;;;;;;3.25;2.85;;;15.20;99.90;;;;;;5088985;28;20197;-80
2023/07/19 04:39:41;;;;;;;3.85;2.55;;;15.30;99.90;;;;;;5087851;28;20253;-81
2023/07/19 04:42:09;;;;;;;4.78;2.92;;;15.30;99.90;;;;;;5086541;28;20243;-80
2023/07/19 04:44:38;;;;;;;5.68;3.13;;;15.10;99.90;;;;;;5086675;28;20658;-81
2023/07/19 04:47:05;;;;;;;5.78;3.13;;;15.20;99.90;;;;;;5087522;28;20637;-81
2023/07/19 04:49:34;;;;;;;4.28;2.80;;;15.30;99.90;;;;;;5098195;28;20205;-80
2023/07/19 04:52:00;;;;;;;4.18;2.67;;;15.30;99.90;;;;;;5097774;28;20225;-81
2023/07/19 04:54:27;;;;;;;4.70;2.97;;;15.20;99.90;;;;;;5098413;28;20295;-82
2023/07/19 04:56:54;;;;;;;4.93;2.58;;;15.30;99.90;;;;;;5099598;28;20706;-80
2023/07/19 04:59:21;;;;;;;3.22;2.58;;;15.30;99.90;;;;;;5100003;28;20312;-79
2023/07/19 05:01:48;;;;;;;3.30;2.58;;;15.20;99.90;;;;;;5100339;28;20267;-80
2023/07/19 05:04:14;;;;;;;5.22;3.05;;;15.20;99.90;;;;;;5100124;28;20211;-80
2023/07/19 05:06:43;;;;;;;5.07;2.83;;;15.30;99.90;;;;;;5098973;28;20669;-80
2023/07/19 05:09:10;;;;;;;4.32;2.80;;;15.40;99.90;;;;;;5099257;28;20208;-80
2023/07/19 05:11:37;;;;;;;6.50;3.08;;;15.40;99.90;;;;;;5099393;28;20617;-81
2023/07/19 05:14:04;;;;;;;5.90;2.95;;;15.40;99.90;;;;;;5099287;28;20198;-81
2023/07/19 05:16:31;;;;;;;6.40;3.17;;;15.60;99.90;;;;;;5098830;28;20579;-80
2023/07/19 05:18:58;;;;;;;4.18;2.38;;;15.80;99.90;;;;;;5098985;28;20269;-80
2023/07/19 05:21:25;;;;;;;3.63;2.75;;;15.80;99.90;;;;;;5096894;28;20213;-81
2023/07/19 05:23:53;;;;;;;5.60;2.85;;;16.00;99.90;;;;;;5087816;28;20218;-80
2023/07/19 05:26:20;;;;;;;5.70;2.85;;;16.30;99.90;;;;;;5078676;28;20206;-79
2023/07/19 05:28:46;;;;;;;4.85;2.92;;;16.50;99.90;;;;;;5084234;28;20203;-81
2023/07/19 05:31:13;;;;;;;4.50;2.83;;;16.80;99.90;;;;;;5091227;28;20568;-81
2023/07/19 05:33:40;;;;;;;4.75;2.95;;;17.00;99.90;;;;;;5099663;28;20812;-79
2023/07/19 05:36:07;;;;;;;5.03;3.08;;;17.70;99.90;;;;;;5099351;28;20662;-81
2023/07/19 05:38:34;;;;;;;5.10;2.78;;;17.30;99.90;;;;;;5099172;28;20208;-79
2023/07/19 05:41:04;;;;;;;5.25;3.00;;;17.20;99.90;;;;;;5098640;28;20235;-80
2023/07/19 05:43:32;;;;;;;3.88;2.85;;;17.10;99.90;;;;;;5098903;28;20222;-79
2023/07/19 05:46:04;;;;;;;5.25;2.85;;;17.10;99.90;;;;;;5079860;28;20564;-80
2023/07/19 05:48:31;;;;;;;6.00;2.80;;;16.90;99.90;;;;;;5078832;28;20301;-80
2023/07/19 05:50:57;;;;;;;5.13;2.80;;;17.20;99.90;;;;;;5084997;28;20205;-80
2023/07/19 05:53:24;;;;;;;4.53;3.25;;;17.50;99.90;;;;;;5099459;28;20521;-80
2023/07/19 05:55:52;;;;;;;3.85;2.85;;;18.10;99.90;;;;;;5098889;28;20657;-79
2023/07/19 05:58:20;;;;;;;5.03;2.97;;;18.50;99.90;;;;;;5098038;28;20214;-80
2023/07/19 06:00:48;;;;;;;5.45;3.08;;;18.20;99.90;;;;;;5098913;28;20732;-81
2023/07/19 06:03:16;;;;;;;4.70;2.97;;;18.20;99.90;;;;;;5097675;28;20221;-80
2023/07/19 06:05:43;;;;;;;3.95;2.80;;;18.10;99.90;;;;;;5089534;28;20198;-81
2023/07/19 06:08:10;;;;;;;5.38;3.00;;;17.90;99.90;;;;;;5089251;28;20194;-81
2023/07/19 06:10:37;;;;;;;4.53;2.90;;;18.00;99.90;;;;;;5098477;28;20300;-79
2023/07/19 06:13:04;;;;;;;4.88;2.63;;;17.90;99.90;;;;;;5098256;28;20217;-79
2023/07/19 06:15:32;;;;;;;5.85;2.65;;;18.00;99.90;;;;;;5098201;28;20209;-79
2023/07/19 06:17:59;;;;;;;8.13;2.78;;;18.00;99.90;;;;;;5099040;28;20608;-81
2023/07/19 06:20:26;;;;;;;5.15;2.90;;;17.90;99.90;;;;;;5098230;28;20221;-80
2023/07/19 06:22:52;;;;;;;6.20;2.60;;;18.10;99.90;;;;;;5098463;28;20253;-81
2023/07/19 06:25:19;;;;;;;5.65;2.50;;;18.30;99.90;;;;;;5098755;28;20198;-81
2023/07/19 06:27:46;;;;;;;4.28;2.70;;;18.30;99.90;;;;;;5099078;28;20204;-80
2023/07/19 06:30:13;;;;;;;3.65;2.72;;;18.40;99.90;;;;;;5098438;28;20224;-81
2023/07/19 06:32:41;;;;;;;5.47;3.03;;;18.40;99.90;;;;;;5098932;28;20606;-80
2023/07/19 06:35:09;;;;;;;5.22;2.75;;;18.50;99.90;;;;;;5098865;28;20208;-80
2023/07/19 06:37:36;;;;;;;4.65;3.28;;;18.70;99.90;;;;;;5098260;28;20638;-81
2023/07/19 06:40:03;;;;;;;6.80;3.17;;;18.80;99.90;;;;;;5095821;28;20608;-79
2023/07/19 06:42:30;;;;;;;4.97;2.85;;;19.10;99.90;;;;;;5097277;28;20709;-80
2023/07/19 06:44:58;;;;;;;6.88;3.25;;;19.20;99.90;;;;;;5090158;28;20206;-80
2023/07/19 06:47:26;;;;;;;3.17;2.50;;;19.30;99.90;;;;;;5083481;28;20204;-80
2023/07/19 06:49:54;;;;;;;4.97;2.67;;;19.30;99.90;;;;;;5090055;28;20193;-80
2023/07/19 06:52:21;;;;;;;4.35;2.50;;;19.30;99.90;;;;;;5097663;28;20246;-80
2023/07/19 06:54:47;;;;;;;4.80;3.13;;;19.50;99.90;;;;;;5086188;28;20194;-79
2023/07/19 06:57:14;;;;;;;3.88;2.60;;;19.70;99.90;;;;;;5083965;28;20202;-79
2023/07/19 06:59:41;;;;;;;4.85;2.58;;;19.80;99.90;;;;;;5088958;28;20239;-79
2023/07/19 07:02:09;;;;;;;4.68;2.80;;;19.90;99.90;;;;;;5097879;28;20608;-80
2023/07/19 07:04:36;;;;;;;5.68;3.35;;;19.80;99.90;;;;;;5095848;28;20200;-80
2023/07/19 07:07:05;;;;;;;7.13;2.78;;;19.70;99.90;;;;;;5077244;28;20265;-81
2023/07/19 07:09:31;;;;;;;3.88;2.80;;;19.80;99.90;;;;;;5076661;28;20203;-80
2023/07/19 07:11:58;;;;;;;3.90;2.80;;;19.70;99.90;;;;;;5081382;28;20234;-80
2023/07/19 07:14:25;;;;;;;3.97;3.10;;;19.60;99.90;;;;;;5095750;28;20220;-80
2023/07/19 07:16:52;;;;;;;4.15;3.17;;;19.30;99.90;;;;;;5096938;28;20551;-80
2023/07/19 07:19:19;;;;;;;4.10;2.80;;;19.40;99.90;;;;;;5097619;28;20201;-80
2023/07/19 07:21:46;;;;;;;5.40;2.55;;;19.60;99.90;;;;;;5098852;28;20218;-79
2023/07/19 07:24:14;;;;;;;4.70;2.80;;;19.80;99.90;;;;;;5098627;28;20227;-81
2023/07/19 07:26:41;;;;;;;5.03;2.60;;;20.00;99.90;;;;;;5097164;28;20269;-80
2023/07/19 07:29:08;;;;;;;6.65;2.90;;;20.10;99.90;;;;;;5084062;28;20639;-80
2023/07/19 07:31:34;;;;;;;5.45;3.42;;;20.20;99.90;;;;;;5091145;28;20240;-79
2023/07/19 07:34:01;;;;;;;6.60;3.00;;;20.40;99.90;;;;;;5090900;28;20243;-79
2023/07/19 07:36:29;;;;;;;7.15;3.08;;;20.50;99.90;;;;;;5086093;28;20195;-80
2023/07/19 07:38:56;;;;;;;3.70;2.78;;;20.70;99.90;;;;;;5086646;28;20194;-80
2023/07/19 07:41:24;;;;;;;2.78;2.50;;;20.60;99.90;;;;;;5092389;28;20453;-79
2023/07/19 07:43:51;;;;;;;6.85;3.40;;;20.80;99.90;;;;;;5096689;28;20312;-79
2023/07/19 07:46:17;;;;;;;4.28;3.00;;;20.70;99.90;;;;;;5097243;28;20579;-80
2023/07/19 07:48:44;;;;;;;3.75;2.80;;;20.70;99.90;;;;;;5097543;28;20697;-81
2023/07/19 07:51:13;;;;;;;4.57;2.83;;;20.70;99.90;;;;;;5097192;28;20197;-81
2023/07/19 07:53:41;;;;;;;4.15;2.70;;;20.70;99.90;;;;;;5097238;28;20248;-80
2023/07/19 07:56:08;;;;;;;5.75;3.10;;;20.90;99.90;;;;;;5096729;28;20673;-81
2023/07/19 07:58:39;;;;;;;5.80;3.00;;;20.90;99.90;;;;;;5097999;28;20556;-81
2023/07/19 08:01:06;;;;;;;4.25;2.75;;;20.80;99.90;;;;;;5098142;28;20649;-81
2023/07/19 08:03:32;;;;;;;3.65;2.70;;;20.90;99.90;;;;;;5098759;28;20225;-79
2023/07/19 08:06:00;;;;;;;3.25;2.38;;;20.90;99.90;;;;;;5097568;28;20204;-80
2023/07/19 08:08:26;;;;;;;6.30;2.88;;;21.10;99.90;;;;;;5098142;28;20205;-81
2023/07/19 08:11:02;;;;;;;4.03;2.75;;;21.10;99.90;;;;;;5099497;28;20647;-80
2023/07/19 08:13:29;;;;;;;5.30;2.67;;;21.30;99.90;;;;;;5098060;28;20657;-81
2023/07/19 08:15:57;;;;;;;5.25;2.38;;;21.40;99.90;;;;;;5098778;28;20232;-79
2023/07/19 08:18:24;;;;;;;5.78;2.55;;;21.30;99.90;;;;;;5098321;28;20236;-80
2023/07/19 08:20:52;;;;;;;3.03;2.40;;;21.50;99.90;;;;;;5098429;28;20218;-80
2023/07/19 08:23:19;;;;;;;4.10;2.47;;;21.70;99.90;;;;;;5099255;28;20225;-80
2023/07/19 08:25:46;;;;;;;2.67;2.25;;;21.60;99.90;;;;;;5098716;28;20201;-80
2023/07/19 08:28:13;;;;;;;2.50;2.30;;;21.80;99.90;;;;;;5098284;28;20197;-83
2023/07/19 08:30:41;;;;;;;4.13;2.63;;;22.00;90.70;;;;;;5098095;28;20194;-80
2023/07/19 08:33:09;;;;;;;4.13;2.35;;;22.00;90.50;;;;;;5096234;28;20248;-81
2023/07/19 08:35:36;;;;;;;3.20;2.30;;;22.10;67.20;;;;;;5098385;28;20218;-80
2023/07/19 08:38:03;;;;;;;4.97;1.77;;;22.20;47.80;;;;;;5096470;28;20677;-81
2023/07/19 08:40:32;;;;;;;7.22;2.92;;;22.30;29.30;;;;;;5096724;28;20217;-82
2023/07/19 08:42:59;;;;;;;2.35;2.00;;;22.20;41.10;;;;;;5097247;28;20229;-81
2023/07/19 08:45:27;;;;;;;3.38;2.33;;;22.20;25.10;;;;;;5096525;28;20232;-82
2023/07/19 08:47:54;;;;;;;2.15;1.95;;;22.00;15.30;;;;;;5096318;28;20600;-81
2023/07/19 08:50:24;;;;;;;3.80;2.42;;;22.00;20.70;;;;;;5096723;28;20202;-80
2023/07/19 08:52:50;;;;;;;2.58;2.05;;;22.20;44.60;;;;;;5098024;28;20221;-81
2023/07/19 08:55:18;;;;;;;5.63;2.35;;;22.10;18.40;;;;;;5098149;28;20209;-80
2023/07/19 08:57:45;;;;;;;2.92;2.30;;;22.20;15.00;;;;;;5097675;28;20202;-80
2023/07/19 09:00:17;;;;;;;5.35;2.47;;;22.30;27.70;;;;;;5097321;28;20219;-81
2023/07/19 09:02:43;;;;;;;3.75;2.30;;;22.70;25.00;;;;;;5099537;28;20236;-80
2023/07/19 09:05:12;;;;;;;5.18;2.58;;;22.70;31.00;;;;;;5097345;28;20209;-81
2023/07/19 09:07:41;;;;;;;3.15;2.13;;;23.20;12.80;;;;;;5097163;28;20205;-80
2023/07/19 09:10:10;;;;;;;4.93;2.22;;;23.30;25.50;;;;;;5098693;28;20198;-80
2023/07/19 09:12:38;;;;;;;6.20;2.70;;;23.50;18.30;;;;;;5095038;28;20709;-83
2023/07/19 09:15:06;;;;;;;5.90;2.58;;;23.60;1.00;;;;;;5088945;28;20854;-81
2023/07/19 09:17:37;;;;;;;4.53;1.95;;;23.70;4.80;;;;;;5082824;28;20595;-83
2023/07/19 09:20:05;;;;;;;3.70;2.25;;;23.50;1.00;;;;;;5080933;28;20269;-80
2023/07/19 09:22:32;;;;;;;3.58;1.92;;;23.90;4.80;;;;;;5081050;28;20321;-80
2023/07/19 09:25:03;;;;;;;7.63;2.40;;;24.10;1.00;;;;;;5080591;28;20202;-83
2023/07/19 09:27:30;;;;;;;3.47;2.55;;;24.60;1.00;;;;;;5087725;28;20339;-80
2023/07/19 09:29:57;;;;;;;3.03;2.25;;;24.90;12.40;;;;;;5083536;28;20202;-80
2023/07/19 09:32:24;;;;;;;5.18;2.60;;;25.20;1.00;;;;;;5101930;28;20569;-80
2023/07/19 09:34:55;;;;;;;4.03;2.40;;;24.80;1.00;;;;;;5100677;28;20212;-82
2023/07/19 09:37:23;;;;;;;2.78;2.10;;;24.50;1.00;;;;;;5100613;28;20201;-82
2023/07/19 09:39:50;;;;;;;3.35;2.20;;;24.80;1.00;;;;;;5101343;28;20197;-81
2023/07/19 09:42:20;;;;;;;4.30;2.30;;;25.10;1.00;;;;;;5101117;28;20241;-81
2023/07/19 09:44:47;;;;;;;2.33;2.03;;;25.20;1.00;;;;;;5101850;28;20205;-82
2023/07/19 09:47:15;;;;;;;3.33;2.25;;;25.20;1.00;;;;;;5101556;28;20296;-81
2023/07/19 09:49:42;;;;;;;5.05;2.50;;;25.30;1.00;;;;;;5101588;28;20293;-81
2023/07/19 09:52:13;;;;;;;4.90;2.05;;;25.30;1.00;;;;;;5086189;28;20210;-81
2023/07/19 09:54:43;;;;;;;2.67;2.20;;;25.80;1.00;;;;;;5081732;28;20198;-83
2023/07/19 09:57:09;;;;;;;5.70;2.15;;;26.30;1.00;;;;;;5083332;28;20201;-81
2023/07/19 09:59:41;;;;;;;2.28;1.90;;;26.30;1.00;;;;;;5082156;28;20293;-82
2023/07/19 10:02:08;;;;;;;3.15;2.08;;;26.10;1.00;;;;;;5097628;28;20229;-80
2023/07/19 10:04:38;;;;;;;2.97;1.85;;;26.30;1.00;;;;;;5101993;28;20198;-80
2023/07/19 10:07:09;;;;;;;2.53;1.80;;;26.90;1.00;;;;;;5101054;28;20224;-82
2023/07/19 10:09:41;;;;;;;5.95;2.15;;;26.80;1.00;;;;;;5102766;28;20205;-81
2023/07/19 10:12:25;;;;;;;5.05;2.45;;;25.90;1.00;;;;;;5082659;28;20237;-82
2023/07/19 10:14:54;;;;;;;3.05;1.80;;;25.70;1.00;;;;;;5082605;28;20204;-82
2023/07/19 10:17:21;;;;;;;5.38;2.13;;;25.90;1.00;;;;;;5085711;28;20209;-82
2023/07/19 10:20:14;;;;;;;4.25;2.42;;;25.90;1.00;;;;;;5081945;28;20206;-80
2023/07/19 10:22:47;;;;;;;3.90;2.30;;;25.60;1.00;;;;;;5062814;28;20720;-80
2023/07/19 10:25:15;;;;;;;4.05;2.00;;;25.70;1.00;;;;;;5081779;28;20197;-81
2023/07/19 10:27:42;;;;;;;2.95;2.22;;;25.30;1.00;;;;;;5084272;28;20202;-81
2023/07/19 10:30:12;;;;;;;3.85;1.80;;;25.60;1.00;;;;;;5082278;28;20289;-79
2023/07/19 10:32:38;;;;;;;3.97;2.20;;;26.10;1.00;;;;;;5083065;28;20225;-79
2023/07/19 10:35:06;;;;;;;2.97;1.90;;;26.40;1.00;;;;;;5080226;28;20198;-80
2023/07/19 10:37:33;;;;;;;2.60;1.85;;;27.00;1.00;;;;;;5080154;28;20288;-81
2023/07/19 10:39:59;;;;;;;1.80;1.67;;;26.90;1.00;;;;;;5081013;28;20944;-81
2023/07/19 10:42:26;;;;;;;2.72;1.55;;;27.00;1.00;;;;;;5092683;28;20233;-81
2023/07/19 10:44:53;;;;;;;1.98;1.60;;;27.30;1.00;;;;;;5102133;28;20216;-81
2023/07/19 10:47:21;;;;;;;2.13;1.75;;;27.10;1.00;;;;;;5101217;28;20205;-81
2023/07/19 10:49:48;;;;;;;3.75;1.80;;;27.20;1.00;;;;;;5101850;28;20293;-82
2023/07/19 10:52:21;;;;;;;2.90;1.50;;;27.00;1.00;;;;;;5101221;28;20244;-82
2023/07/19 10:54:55;;;;;;;3.33;1.48;;;27.00;1.00;;;;;;5100466;28;20202;-81
2023/07/19 10:57:23;;;;;;;3.05;1.90;;;26.90;1.00;;;;;;5089031;28;20206;-80
2023/07/19 10:59:51;;;;;;;2.58;1.95;;;26.70;1.00;;;;;;5087140;28;20209;-80
2023/07/19 11:02:18;;;;;;;4.45;2.03;;;26.60;1.00;;;;;;5088568;28;20256;-80
2023/07/19 11:04:47;;;;;;;3.20;1.83;;;26.80;1.00;;;;;;5084405;28;20661;-81
2023/07/19 11:07:14;;;;;;;2.85;1.70;;;26.90;1.00;;;;;;5083868;28;20202;-81
2023/07/19 11:09:42;;;;;;;2.63;1.80;;;26.50;1.00;;;;;;5099487;28;20280;-81
2023/07/19 11:12:10;;;;;;;2.53;1.77;;;26.40;1.00;;;;;;5087813;28;20241;-81
2023/07/19 11:14:42;;;;;;;2.97;1.73;;;26.80;1.00;;;;;;5090456;28;20217;-81
2023/07/19 11:17:09;;;;;;;2.55;1.55;;;26.90;1.00;;;;;;5100264;28;20251;-80
2023/07/19 11:19:38;;;;;;;6.18;2.47;;;27.30;1.00;;;;;;5100399;28;20208;-79
2023/07/19 11:22:07;;;;;;;2.10;1.65;;;27.10;1.00;;;;;;5096098;28;20225;-80
2023/07/19 11:24:38;;;;;;;3.33;2.17;;;26.50;1.00;;;;;;5095523;28;20220;-81
2023/07/19 11:27:06;;;;;;;4.55;1.80;;;25.80;1.00;;;;;;5081931;28;20289;-80
2023/07/19 11:29:33;;;;;;;3.80;1.95;;;25.30;1.00;;;;;;5094050;28;20201;-81
2023/07/19 11:32:18;;;;;;;2.15;1.52;;;25.30;1.00;;;;;;5089682;28;20218;-81
2023/07/19 11:34:46;;;;;;;1.95;1.83;;;25.00;1.00;;;;;;5082917;28;20267;-82
2023/07/19 11:37:19;;;;;;;2.47;1.60;;;25.20;1.00;;;;;;5077592;28;20202;-81
2023/07/19 11:39:48;;;;;;;3.42;1.73;;;25.10;1.00;;;;;;5089960;28;20213;-83
2023/07/19 11:42:15;;;;;;;4.53;1.60;;;25.00;1.00;;;;;;5085627;28;20292;-80
2023/07/19 11:44:45;;;;;;;4.10;1.80;;;25.40;1.00;;;;;;5085859;28;20253;-81
2023/07/19 11:47:12;;;;;;;2.15;1.50;;;25.50;1.00;;;;;;5084503;28;20202;-81
2023/07/19 11:49:39;;;;;;;9.40;2.40;;;25.20;1.00;;;;;;5092958;28;20205;-82
2023/07/19 11:52:07;;;;;;;1.92;1.70;;;25.40;1.00;;;;;;5092864;28;20709;-81
2023/07/19 11:54:35;;;;;;;4.15;1.90;;;25.50;1.00;;;;;;5092623;28;20213;-81
2023/07/19 11:57:01;;;;;;;2.80;1.60;;;25.20;1.00;;;;;;5093988;28;20217;-80
2023/07/19 11:59:28;;;;;;;2.28;1.60;;;24.90;1.00;;;;;;5094800;28;20213;-81
2023/07/19 12:01:55;;;;;;;3.85;1.70;;;24.80;1.00;;;;;;5094301;28;20221;-83
2023/07/19 12:04:22;;;;;;;2.83;1.58;;;24.70;1.00;;;;;;5093792;28;20197;-81
2023/07/19 12:06:49;;;;;;;3.38;1.63;;;24.60;1.00;;;;;;5087630;28;20204;-81
2023/07/19 12:09:16;;;;;;;3.15;1.75;;;24.60;1.00;;;;;;5086253;28;20285;-80
2023/07/19 12:11:47;;;;;;;2.25;1.70;;;24.60;1.00;;;;;;5083373;28;20216;-81
2023/07/19 12:14:16;;;;;;;3.75;1.70;;;24.90;1.00;;;;;;5082269;28;20202;-81
2023/07/19 12:16:43;;;;;;;2.47;1.65;;;25.10;1.00;;;;;;5080534;28;20205;-82
2023/07/19 12:19:11;;;;;;;4.32;1.80;;;25.00;1.00;;;;;;5082582;28;20208;-83
2023/07/19 12:21:39;;;;;;;2.70;1.67;;;25.00;1.00;;;;;;5087199;28;20221;-81
2023/07/19 12:24:06;;;;;;;3.08;1.63;;;24.70;1.00;;;;;;5088321;28;20216;-81
2023/07/19 12:26:34;;;;;;;4.05;1.58;;;24.80;1.00;;;;;;5080952;28;20257;-82
2023/07/19 12:29:03;;;;;;;3.65;2.03;;;24.90;1.00;;;;;;5088920;28;20241;-82
2023/07/19 12:31:29;;;;;;;3.38;1.75;;;25.00;1.00;;;;;;5082307;28;20654;-80
2023/07/19 12:33:57;;;;;;;2.75;1.50;;;25.40;1.00;;;;;;5089569;28;20671;-80
2023/07/19 12:36:24;;;;;;;4.10;2.03;;;25.60;1.00;;;;;;5083542;28;20332;-82
2023/07/19 12:38:51;;;;;;;3.90;2.13;;;25.30;1.00;;;;;;5085326;28;20233;-81
2023/07/19 12:41:18;;;;;;;3.47;1.50;;;25.30;1.00;;;;;;5079123;28;20209;-81
2023/07/19 12:43:45;;;;;;;2.10;1.60;;;25.50;1.00;;;;;;5079835;28;20308;-82
2023/07/19 12:46:13;;;;;;;2.75;1.70;;;25.20;1.00;;;;;;5088294;28;20194;-80
2023/07/19 12:48:40;;;;;;;1.92;1.70;;;25.20;1.00;;;;;;5082271;28;20283;-81
2023/07/19 12:51:07;;;;;;;3.75;1.92;;;25.00;1.00;;;;;;5086678;28;20688;-82
2023/07/19 12:53:34;;;;;;;2.83;1.60;;;25.20;1.00;;;;;;5083624;28;20219;-81